createdAt,value
2023-04-15T00:01:29.150Z,71.85
2023-04-15T00:04:03.080Z,72.18
2023-04-15T00:06:29.843Z,72.38
2023-04-15T00:09:04.034Z,72.50
2023-04-15T00:11:30.738Z,72.56
2023-04-15T00:14:04.948Z,72.91
2023-04-15T00:16:31.758Z,73.10
2023-04-15T00:18:58.694Z,73.42
2023-04-15T00:21:32.191Z,73.94
2023-04-15T00:24:04.997Z,74.02
2023-04-15T00:26:31.654Z,73.25
2023-04-15T00:29:05.088Z,73.54
2023-04-15T00:31:32.312Z,73.66
2023-04-15T00:33:59.947Z,74.01
2023-04-15T00:36:33.081Z,73.81
2023-04-15T00:39:00.216Z,73.58
2023-04-15T00:41:33.977Z,73.94
2023-04-15T00:44:08.188Z,74.15
2023-04-15T00:46:45.992Z,74.19
2023-04-15T00:49:13.440Z,73.61
2023-04-15T00:51:46.967Z,74.07
2023-04-15T00:54:14.092Z,74.11
2023-04-15T00:56:47.957Z,74.08
2023-04-15T00:59:15.304Z,74.37
2023-04-15T01:01:49.137Z,74.42
2023-04-15T01:04:22.632Z,74.74
2023-04-15T01:06:56.063Z,73.81
2023-04-15T01:09:22.921Z,74.38
2023-04-15T01:11:49.695Z,75.31
2023-04-15T01:14:23.040Z,75.42
2023-04-15T01:16:49.887Z,74.80
2023-04-15T01:19:24.987Z,74.85
2023-04-15T01:21:52.167Z,74.94
2023-04-15T01:24:26.048Z,75.46
2023-04-15T01:26:52.903Z,75.05
2023-04-15T01:29:27.040Z,74.66
2023-04-15T01:31:56.229Z,75.09
2023-04-15T01:34:30.047Z,74.94
2023-04-15T01:36:56.802Z,75.57
2023-04-15T01:39:23.710Z,75.40
2023-04-15T01:41:57.029Z,75.68
2023-04-15T01:44:30.167Z,75.43
2023-04-15T01:47:03.047Z,75.61
2023-04-15T01:49:29.904Z,76.41
2023-04-15T01:52:03.018Z,76.67
2023-04-15T01:54:29.910Z,76.72
2023-04-15T01:57:04.004Z,77.18
2023-04-15T01:59:31.605Z,77.08
2023-04-15T02:02:05.084Z,77.50
2023-04-15T02:04:38.012Z,77.64
2023-04-15T02:07:04.790Z,77.23
2023-04-15T02:09:38.015Z,77.86
2023-04-15T02:12:06.166Z,77.75
2023-04-15T02:14:39.028Z,77.38
2023-04-15T02:17:08.767Z,77.83
2023-04-15T02:19:43.090Z,77.55
2023-04-15T02:22:11.669Z,78.14
2023-04-15T02:24:45.014Z,78.06
2023-04-15T02:27:18.372Z,78.13
2023-04-15T02:29:53.043Z,78.07
2023-04-15T02:32:20.385Z,78.55
2023-04-15T02:34:54.053Z,78.46
2023-04-15T02:37:21.146Z,78.50
2023-04-15T02:39:48.010Z,78.53
2023-04-15T02:42:21.110Z,79.42
2023-04-15T02:44:47.933Z,79.31
2023-04-15T02:47:22.046Z,79.06
2023-04-15T02:49:48.829Z,79.64
2023-04-15T02:52:22.011Z,79.29
2023-04-15T02:54:48.875Z,79.29
2023-04-15T02:57:22.046Z,79.18
2023-04-15T02:59:48.803Z,79.16
2023-04-15T03:02:22.211Z,79.94
2023-04-15T03:04:56.057Z,79.80
2023-04-15T03:07:29.078Z,79.39
2023-04-15T03:09:55.782Z,79.61
2023-04-15T03:12:29.084Z,80.01
2023-04-15T03:15:02.108Z,80.11
2023-04-15T03:17:28.901Z,80.19
2023-04-15T03:20:02.034Z,80.13
2023-04-15T03:22:28.723Z,80.50
2023-04-15T03:25:02.060Z,80.10
2023-04-15T03:27:28.789Z,79.91
2023-04-15T03:30:03.129Z,80.81
2023-04-15T03:32:29.839Z,80.78
2023-04-15T03:34:56.540Z,80.95
2023-04-15T03:37:30.094Z,80.40
2023-04-15T03:39:56.884Z,80.49
2023-04-15T03:42:30.102Z,81.21
2023-04-15T03:45:04.401Z,80.92
2023-04-15T03:47:38.172Z,81.23
2023-04-15T03:50:05.298Z,81.12
2023-04-15T03:52:38.068Z,81.68
2023-04-15T03:55:05.461Z,81.85
2023-04-15T03:57:39.130Z,82.25
2023-04-15T04:00:07.268Z,82.19
2023-04-15T04:02:40.274Z,81.90
2023-04-15T04:05:07.299Z,81.90
2023-04-15T04:07:40.024Z,82.50
2023-04-15T04:10:07.336Z,82.80
2023-04-15T04:12:34.005Z,82.32
2023-04-15T04:15:07.090Z,82.54
2023-04-15T04:17:40.242Z,82.52
2023-04-15T04:20:14.094Z,82.50
2023-04-15T04:22:41.550Z,82.53
2023-04-15T04:25:17.135Z,82.62
2023-04-15T04:27:43.828Z,82.57
2023-04-15T04:30:17.147Z,82.75
2023-04-15T04:32:43.967Z,82.85
2023-04-15T04:35:18.179Z,83.22
2023-04-15T04:37:45.048Z,82.88
2023-04-15T04:40:35.224Z,83.53
2023-04-15T04:43:15.092Z,83.37
2023-04-15T04:45:48.240Z,84.27
2023-04-15T04:48:21.086Z,83.86
2023-04-15T04:50:54.135Z,84.02
2023-04-15T04:53:20.890Z,84.10
2023-04-15T04:55:54.055Z,83.98
2023-04-15T04:58:20.837Z,83.98
2023-04-15T05:00:54.114Z,83.55
2023-04-15T05:03:27.243Z,83.99
2023-04-15T05:06:01.123Z,83.88
2023-04-15T05:08:34.293Z,84.24
2023-04-15T05:11:01.155Z,83.81
2023-04-15T05:13:34.230Z,84.43
2023-04-15T05:16:07.150Z,84.28
2023-04-15T05:18:41.154Z,84.02
2023-04-15T05:21:07.900Z,84.13
2023-04-15T05:23:34.808Z,84.65
2023-04-15T05:26:08.072Z,84.66
2023-04-15T05:28:41.159Z,83.76
2023-04-15T05:31:15.186Z,84.01
2023-04-15T05:33:42.155Z,84.04
2023-04-15T05:36:15.080Z,84.61
2023-04-15T05:38:42.300Z,84.58
2023-04-15T05:41:18.395Z,84.54
2023-04-15T05:43:52.637Z,84.40
2023-04-15T05:46:26.126Z,84.24
2023-04-15T05:48:54.660Z,84.54
2023-04-15T05:51:28.166Z,84.76
2023-04-15T05:53:54.805Z,84.59
2023-04-15T05:56:28.179Z,84.73
2023-04-15T05:58:54.960Z,84.70
2023-04-15T06:01:29.208Z,84.84
2023-04-15T06:03:56.458Z,84.91
2023-04-15T06:06:30.154Z,84.72
2023-04-15T06:08:57.692Z,84.77
2023-04-15T06:11:31.212Z,85.16
2023-04-15T06:13:58.056Z,85.02
2023-04-15T06:16:31.287Z,85.25
2023-04-15T06:19:04.118Z,84.64
2023-04-15T06:21:31.736Z,84.31
2023-04-15T06:24:07.212Z,84.07
2023-04-15T06:26:33.983Z,83.83
2023-04-15T06:29:07.101Z,84.09
2023-04-15T06:31:34.015Z,83.78
2023-04-15T06:34:07.177Z,83.72
2023-04-15T06:36:34.034Z,83.28
2023-04-15T06:39:08.142Z,83.27
2023-04-15T06:41:42.077Z,83.10
2023-04-15T06:44:22.152Z,82.99
2023-04-15T06:46:48.974Z,82.70
2023-04-15T06:49:22.164Z,82.58
2023-04-15T06:51:55.160Z,82.51
2023-04-15T06:54:21.955Z,82.31
2023-04-15T06:56:55.163Z,82.30
2023-04-15T06:59:21.916Z,82.02
2023-04-15T07:01:55.120Z,82.25
2023-04-15T07:04:21.890Z,81.99
2023-04-15T07:06:55.164Z,82.08
2023-04-15T07:09:23.273Z,81.90
2023-04-15T07:11:56.119Z,81.84
2023-04-15T07:14:22.937Z,81.85
2023-04-15T07:16:56.162Z,81.75
2023-04-15T07:19:30.186Z,81.87
2023-04-15T07:22:03.240Z,81.42
2023-04-15T07:24:37.352Z,81.56
2023-04-15T07:27:04.341Z,81.40
2023-04-15T07:29:38.133Z,81.63
2023-04-15T07:32:05.208Z,81.63
2023-04-15T07:34:38.230Z,81.63
2023-04-15T07:37:04.870Z,81.41
2023-04-15T07:39:38.176Z,81.42
2023-04-15T07:42:11.166Z,81.25
2023-04-15T07:44:51.150Z,80.95
2023-04-15T07:47:17.843Z,80.97
2023-04-15T07:49:51.163Z,81.08
2023-04-15T07:52:24.243Z,80.30
2023-04-15T07:54:51.246Z,80.58
2023-04-15T07:57:24.167Z,80.89
2023-04-15T07:59:50.846Z,80.40
2023-04-15T08:02:24.292Z,80.71
2023-04-15T08:04:51.140Z,80.46
2023-04-15T08:07:25.216Z,80.58
2023-04-15T08:09:51.994Z,80.60
2023-04-15T08:12:25.211Z,80.29
2023-04-15T08:14:52.364Z,80.17
2023-04-15T08:17:19.072Z,80.13
2023-04-15T08:19:52.179Z,80.42
2023-04-15T08:22:19.685Z,79.75
2023-04-15T08:24:54.166Z,79.15
2023-04-15T08:27:20.885Z,79.17
2023-04-15T08:29:54.219Z,79.21
2023-04-15T08:32:21.485Z,79.30
2023-04-15T08:34:55.276Z,78.58
2023-04-15T08:37:23.173Z,78.24
2023-04-15T08:39:57.286Z,78.14
2023-04-15T08:42:37.688Z,78.18
2023-04-15T08:45:12.269Z,77.64
2023-04-15T08:47:48.244Z,77.73
2023-04-15T08:50:23.208Z,77.62
2023-04-15T08:52:56.267Z,77.24
2023-04-15T08:55:30.241Z,76.51
2023-04-15T08:57:57.592Z,76.26
2023-04-15T09:00:31.406Z,76.58
2023-04-15T09:03:06.318Z,76.24
2023-04-15T09:05:34.529Z,75.99
2023-04-15T09:08:09.219Z,75.79
2023-04-15T09:10:37.029Z,75.70
2023-04-15T09:13:11.291Z,75.68
2023-04-15T09:15:40.695Z,75.87
2023-04-15T09:18:14.283Z,75.47
2023-04-15T09:20:45.370Z,75.11
2023-04-15T09:23:21.239Z,75.91
2023-04-15T09:25:49.455Z,75.44
2023-04-15T09:28:31.190Z,75.04
2023-04-15T09:31:08.247Z,76.03
2023-04-15T09:33:41.229Z,75.67
2023-04-15T09:36:08.136Z,75.79
2023-04-15T09:38:41.301Z,75.23
2023-04-15T09:41:18.927Z,75.16
2023-04-15T09:43:59.286Z,74.72
2023-04-15T09:46:59.235Z,74.98
2023-04-15T09:49:26.188Z,74.74
2023-04-15T09:52:06.504Z,74.27
2023-04-15T09:54:38.995Z,74.25
2023-04-15T09:57:16.240Z,74.81
2023-04-15T09:59:43.024Z,74.62
2023-04-15T10:02:18.391Z,74.44
2023-04-15T10:04:45.852Z,74.05
2023-04-15T10:07:19.290Z,74.57
2023-04-15T10:09:47.177Z,74.25
2023-04-15T10:12:23.264Z,73.70
2023-04-15T10:14:56.593Z,73.73
2023-04-15T10:17:31.817Z,73.03
2023-04-15T10:20:09.567Z,72.23
2023-04-15T10:22:44.299Z,72.16
2023-04-15T10:25:12.372Z,71.49
2023-04-15T10:27:49.280Z,71.80
2023-04-15T10:30:23.357Z,72.20
2023-04-15T10:32:50.650Z,71.48
2023-04-15T10:35:25.343Z,71.06
2023-04-15T10:37:52.088Z,70.51
2023-04-15T10:40:39.318Z,71.53
2023-04-15T10:43:39.284Z,71.30
2023-04-15T10:46:13.295Z,71.51
2023-04-15T10:48:46.947Z,70.94
2023-04-15T10:51:21.274Z,71.53
2023-04-15T10:53:48.350Z,71.88
2023-04-15T10:56:24.259Z,71.32
2023-04-15T10:58:51.392Z,72.13
2023-04-15T11:01:30.406Z,72.01
2023-04-15T11:03:57.283Z,72.12
2023-04-15T11:06:51.271Z,71.90
2023-04-15T11:09:41.252Z,71.93
2023-04-15T11:12:09.987Z,71.58
2023-04-15T11:14:47.252Z,70.54
2023-04-15T11:17:14.001Z,71.05
2023-04-15T11:19:47.257Z,71.09
2023-04-15T11:22:14.027Z,71.49
2023-04-15T11:24:57.287Z,71.70
2023-04-15T11:27:24.262Z,71.87
2023-04-15T11:29:57.352Z,72.32
2023-04-15T11:32:24.207Z,72.73
2023-04-15T11:34:59.278Z,73.08
2023-04-15T11:37:30.349Z,72.27
2023-04-15T11:40:03.286Z,72.57
2023-04-15T11:42:39.449Z,72.60
2023-04-15T11:45:23.335Z,73.29
2023-04-15T11:47:50.259Z,72.60
2023-04-15T11:50:24.384Z,72.44
2023-04-15T11:52:59.096Z,71.86
2023-04-15T11:55:33.522Z,72.34
2023-04-15T11:58:17.101Z,71.19
2023-04-15T12:01:07.447Z,70.96
2023-04-15T12:03:38.757Z,71.22
2023-04-15T12:06:32.357Z,71.62
2023-04-15T12:09:00.551Z,72.63
2023-04-15T12:11:33.431Z,72.77
2023-04-15T12:14:09.572Z,72.35
2023-04-15T12:16:48.469Z,72.90
2023-04-15T12:19:36.494Z,73.31
2023-04-15T12:22:17.283Z,73.78
2023-04-15T12:24:48.043Z,74.03
2023-04-15T12:27:33.342Z,74.11
2023-04-15T12:30:06.627Z,73.97
2023-04-15T12:32:43.633Z,73.98
2023-04-15T12:35:10.669Z,73.94
2023-04-15T12:37:44.369Z,74.76
2023-04-15T12:40:11.697Z,74.13
2023-04-15T12:42:38.404Z,74.39
2023-04-15T12:45:12.423Z,74.13
2023-04-15T12:47:45.439Z,73.93
2023-04-15T12:50:12.174Z,74.13
2023-04-15T12:52:45.348Z,73.65
2023-04-15T12:55:12.467Z,73.48
2023-04-15T12:57:46.361Z,72.88
2023-04-15T13:00:20.297Z,72.97
2023-04-15T13:02:47.340Z,73.05
2023-04-15T13:05:22.435Z,73.33
2023-04-15T13:07:49.115Z,73.67
2023-04-15T13:10:22.385Z,73.99
2023-04-15T13:12:50.731Z,73.66
2023-04-15T13:15:20.798Z,73.73
2023-04-15T13:17:54.400Z,73.96
2023-04-15T13:20:21.439Z,73.73
2023-04-15T13:22:55.369Z,74.24
2023-04-15T13:25:22.410Z,74.68
2023-04-15T13:27:56.311Z,74.92
2023-04-15T13:30:23.066Z,75.28
2023-04-15T13:32:57.466Z,75.92
2023-04-15T13:35:24.338Z,75.55
2023-04-15T13:37:57.334Z,75.42
2023-04-15T13:40:24.109Z,75.27
2023-04-15T13:43:05.351Z,75.88
2023-04-15T13:45:39.283Z,76.08
2023-04-15T13:48:13.365Z,76.22
2023-04-15T13:50:48.417Z,76.70
2023-04-15T13:53:21.366Z,76.72
2023-04-15T13:56:00.791Z,77.26
2023-04-15T13:58:34.534Z,77.79
2023-04-15T14:01:03.258Z,77.74
2023-04-15T14:03:38.643Z,78.01
2023-04-15T14:06:13.390Z,78.15
2023-04-15T14:08:40.263Z,78.43
2023-04-15T14:11:13.368Z,78.57
2023-04-15T14:13:40.281Z,78.95
2023-04-15T14:16:13.426Z,79.31
2023-04-15T14:18:40.727Z,79.18
2023-04-15T14:21:14.408Z,79.19
2023-04-15T14:23:41.290Z,79.44
2023-04-15T14:26:14.447Z,78.87
2023-04-15T14:28:41.525Z,78.99
2023-04-15T14:31:14.481Z,79.02
2023-04-15T14:33:41.734Z,79.39
2023-04-15T14:36:09.606Z,79.45
2023-04-15T14:38:48.492Z,79.36
2023-04-15T14:41:16.331Z,79.76
2023-04-15T14:43:49.359Z,80.08
2023-04-15T14:46:22.532Z,80.33
2023-04-15T14:48:56.446Z,80.76
2023-04-15T14:51:23.440Z,80.57
2023-04-15T14:53:56.433Z,80.85
2023-04-15T14:56:23.284Z,81.35
2023-04-15T14:58:57.385Z,81.47
2023-04-15T15:01:24.180Z,81.22
2023-04-15T15:03:57.520Z,81.63
2023-04-15T15:06:30.446Z,81.79
2023-04-15T15:08:57.266Z,81.83
2023-04-15T15:11:30.459Z,82.21
2023-04-15T15:13:57.439Z,82.23
2023-04-15T15:16:31.382Z,82.28
2023-04-15T15:18:58.249Z,82.30
2023-04-15T15:21:31.491Z,82.54
2023-04-15T15:23:58.339Z,82.39
2023-04-15T15:26:31.502Z,82.73
2023-04-15T15:29:05.529Z,82.67
2023-04-15T15:31:39.489Z,83.09
2023-04-15T15:34:12.420Z,82.95
2023-04-15T15:36:39.184Z,83.15
2023-04-15T15:39:12.498Z,83.07
2023-04-15T15:41:39.206Z,83.52
2023-04-15T15:44:19.448Z,83.08
2023-04-15T15:46:46.469Z,83.29
2023-04-15T15:49:20.420Z,83.22
2023-04-15T15:51:47.255Z,83.42
2023-04-15T15:54:20.421Z,83.27
2023-04-15T15:56:47.297Z,83.17
2023-04-15T15:59:20.459Z,83.34
2023-04-15T16:01:48.516Z,83.10
2023-04-15T16:04:22.732Z,83.47
2023-04-15T16:06:56.479Z,83.20
2023-04-15T16:09:23.219Z,83.08
2023-04-15T16:11:56.398Z,83.28
2023-04-15T16:14:25.378Z,83.86
2023-04-15T16:16:59.436Z,83.42
2023-04-15T16:19:26.236Z,83.63
2023-04-15T16:22:00.431Z,83.62
2023-04-15T16:24:27.787Z,83.51
2023-04-15T16:27:01.410Z,83.58
2023-04-15T16:29:28.773Z,83.55
2023-04-15T16:32:02.525Z,83.54
2023-04-15T16:34:29.395Z,83.83
2023-04-15T16:37:02.449Z,83.83
2023-04-15T16:39:35.427Z,84.01
2023-04-15T16:42:09.492Z,84.14
2023-04-15T16:44:42.513Z,84.07
2023-04-15T16:47:11.526Z,84.08
2023-04-15T16:49:45.468Z,83.97
2023-04-15T16:52:12.213Z,84.18
2023-04-15T16:54:48.523Z,84.17
2023-04-15T16:57:15.303Z,84.27
2023-04-15T16:59:48.474Z,84.35
2023-04-15T17:02:21.745Z,84.31
2023-04-15T17:04:55.466Z,84.66
2023-04-15T17:07:22.230Z,84.68
2023-04-15T17:09:55.547Z,84.53
2023-04-15T17:12:22.434Z,84.71
2023-04-15T17:14:49.196Z,85.13
2023-04-15T17:17:23.674Z,85.18
2023-04-15T17:19:50.541Z,85.63
2023-04-15T17:22:23.467Z,85.73
2023-04-15T17:24:50.570Z,85.85
2023-04-15T17:27:23.478Z,86.05
2023-04-15T17:29:50.136Z,85.66
2023-04-15T17:32:23.537Z,85.94
2023-04-15T17:34:51.515Z,85.66
2023-04-15T17:37:25.438Z,86.09
2023-04-15T17:39:52.482Z,86.16
2023-04-15T17:42:25.428Z,86.11
2023-04-15T17:45:05.452Z,86.65
2023-04-15T17:47:38.628Z,86.53
2023-04-15T17:50:12.506Z,86.77
2023-04-15T17:52:39.330Z,87.06
2023-04-15T17:55:13.548Z,87.08
2023-04-15T17:57:40.513Z,87.25
2023-04-15T18:00:16.553Z,87.50
2023-04-15T18:02:43.563Z,87.52
2023-04-15T18:05:17.625Z,87.59
2023-04-15T18:07:44.891Z,87.87
2023-04-15T18:10:12.015Z,88.41
2023-04-15T18:12:45.517Z,88.75
2023-04-15T18:15:12.460Z,88.72
2023-04-15T18:17:45.562Z,88.67
2023-04-15T18:20:13.151Z,88.55
2023-04-15T18:22:46.533Z,88.93
2023-04-15T18:25:13.588Z,89.35
2023-04-15T18:27:47.560Z,89.04
2023-04-15T18:30:14.364Z,89.61
2023-04-15T18:32:48.719Z,89.82
2023-04-15T18:35:17.368Z,89.69
2023-04-15T18:37:50.505Z,89.86
2023-04-15T18:40:23.552Z,89.77
2023-04-15T18:42:56.595Z,90.05
2023-04-15T18:45:31.182Z,90.13
2023-04-15T18:48:04.594Z,90.35
2023-04-15T18:50:37.491Z,90.24
2023-04-15T18:53:04.285Z,90.27
2023-04-15T18:55:38.568Z,90.43
2023-04-15T18:58:06.556Z,90.52
2023-04-15T19:00:45.561Z,90.53
2023-04-15T19:03:12.398Z,90.34
2023-04-15T19:05:46.621Z,90.44
2023-04-15T19:08:13.574Z,90.48
2023-04-15T19:10:47.671Z,90.68
2023-04-15T19:13:20.502Z,90.51
2023-04-15T19:15:53.575Z,90.47
2023-04-15T19:18:28.621Z,90.53
2023-04-15T19:20:56.836Z,90.40
2023-04-15T19:23:30.523Z,90.53
2023-04-15T19:25:57.683Z,90.79
2023-04-15T19:28:31.539Z,90.44
2023-04-15T19:30:58.796Z,90.60
2023-04-15T19:33:37.505Z,90.25
2023-04-15T19:36:12.558Z,90.50
2023-04-15T19:38:45.536Z,90.44
2023-04-15T19:41:12.328Z,90.69
2023-04-15T19:43:52.669Z,90.39
2023-04-15T19:46:27.212Z,90.54
2023-04-15T19:49:02.567Z,90.78
2023-04-15T19:51:29.859Z,90.62
2023-04-15T19:54:03.524Z,90.74
2023-04-15T19:56:31.737Z,90.36
2023-04-15T19:59:07.882Z,90.40
2023-04-15T20:01:34.777Z,90.68
2023-04-15T20:04:09.675Z,90.57
2023-04-15T20:06:43.617Z,90.49
2023-04-15T20:09:11.404Z,90.66
2023-04-15T20:12:46.094Z,90.38
2023-04-15T20:14:37.513Z,90.49
2023-04-15T20:17:10.638Z,90.15
2023-04-15T20:19:37.413Z,90.40
2023-04-15T20:22:10.644Z,90.55
2023-04-15T20:24:37.485Z,90.40
2023-04-15T20:27:10.711Z,90.24
2023-04-15T20:29:38.117Z,90.52
2023-04-15T20:32:05.166Z,90.25
2023-04-15T20:34:38.533Z,90.53
2023-04-15T20:37:05.817Z,90.41
2023-04-15T20:39:38.563Z,90.35
2023-04-15T20:42:05.325Z,90.48
2023-04-15T20:44:38.631Z,90.57
2023-04-15T20:47:12.705Z,90.47
2023-04-15T20:49:46.536Z,90.41
2023-04-15T20:52:19.591Z,90.54
2023-04-15T20:54:53.717Z,90.28
2023-04-15T20:57:20.629Z,90.68
2023-04-15T20:59:53.672Z,90.44
2023-04-15T21:02:20.488Z,90.35
2023-04-15T21:04:53.563Z,90.86
2023-04-15T21:07:26.641Z,90.71
2023-04-15T21:09:53.409Z,90.75
2023-04-15T21:12:26.551Z,90.83
2023-04-15T21:14:53.384Z,90.68
2023-04-15T21:17:26.584Z,91.04
2023-04-15T21:19:53.418Z,90.90
2023-04-15T21:22:26.679Z,90.77
2023-04-15T21:24:53.516Z,90.89
2023-04-15T21:27:26.597Z,90.90
2023-04-15T21:29:53.393Z,90.92
2023-04-15T21:32:26.658Z,90.64
2023-04-15T21:34:53.425Z,91.02
2023-04-15T21:37:20.210Z,91.07
2023-04-15T21:39:53.592Z,90.92
2023-04-15T21:42:20.407Z,91.15
2023-04-15T21:44:53.627Z,91.31
2023-04-15T21:47:27.130Z,91.18
2023-04-15T21:50:00.626Z,91.71
2023-04-15T21:52:27.407Z,91.65
2023-04-15T21:55:00.610Z,91.39
2023-04-15T21:57:27.428Z,91.26
2023-04-15T22:00:00.612Z,91.39
2023-04-15T22:02:27.660Z,91.51
2023-04-15T22:05:00.638Z,91.67
2023-04-15T22:07:27.380Z,91.58
2023-04-15T22:10:00.615Z,91.73
2023-04-15T22:12:33.560Z,91.55
2023-04-15T22:15:07.579Z,91.61
2023-04-15T22:17:40.714Z,91.57
2023-04-15T22:20:08.331Z,91.55
2023-04-15T22:22:48.703Z,91.84
2023-04-15T22:25:21.299Z,91.86
2023-04-15T22:27:54.632Z,91.55
2023-04-15T22:30:21.566Z,91.78
2023-04-15T22:33:01.681Z,91.82
2023-04-15T22:35:28.619Z,91.98
2023-04-15T22:38:01.661Z,91.94
2023-04-15T22:40:29.138Z,92.24
2023-04-15T22:42:55.953Z,92.05
2023-04-15T22:45:29.585Z,92.12
2023-04-15T22:48:03.007Z,92.53
2023-04-15T22:50:36.605Z,92.24
2023-04-15T22:53:03.339Z,92.22
2023-04-15T22:55:36.579Z,92.24
2023-04-15T22:58:03.433Z,92.44
2023-04-15T23:00:36.590Z,92.40
2023-04-15T23:03:03.452Z,92.66
2023-04-15T23:05:36.741Z,92.61
2023-04-15T23:08:03.531Z,92.58
2023-04-15T23:10:36.636Z,92.71
2023-04-15T23:13:09.641Z,92.61
2023-04-15T23:15:43.707Z,92.56
2023-04-15T23:18:10.706Z,92.78
2023-04-15T23:20:43.705Z,92.71
2023-04-15T23:23:16.694Z,92.89
2023-04-15T23:25:49.843Z,92.91
2023-04-15T23:28:22.643Z,93.01
2023-04-15T23:30:50.327Z,93.15
2023-04-15T23:33:23.680Z,93.10
2023-04-15T23:35:50.766Z,93.03
2023-04-15T23:38:23.694Z,93.25
2023-04-15T23:40:53.357Z,93.05
2023-04-15T23:43:26.656Z,93.06
2023-04-15T23:45:59.807Z,93.08
2023-04-15T23:48:39.613Z,93.23
2023-04-15T23:51:13.733Z,93.22
2023-04-15T23:53:40.856Z,93.39
2023-04-15T23:56:14.697Z,93.44
2023-04-15T23:58:48.177Z,93.47
